createdAt,value
2023-01-09T00:01:00.260Z,99755.66
2023-01-09T00:03:27.162Z,99751.34
2023-01-09T00:05:54.065Z,99742.69
2023-01-09T00:08:20.961Z,99737.53
2023-01-09T00:10:50.527Z,99739.25
2023-01-09T00:13:18.256Z,99734.91
2023-01-09T00:15:45.587Z,99742.69
2023-01-09T00:18:12.514Z,99738.34
2023-01-09T00:20:39.389Z,99740.09
2023-01-09T00:23:06.990Z,99738.38
2023-01-09T00:25:33.926Z,99738.38
2023-01-09T00:28:00.835Z,99727.09
2023-01-09T00:30:27.895Z,99729.69
2023-01-09T00:32:56.468Z,99722.78
2023-01-09T00:35:25.886Z,99718.44
2023-01-09T00:37:52.797Z,99712.38
2023-01-09T00:40:20.392Z,99711.53
2023-01-09T00:42:54.900Z,99710.69
2023-01-09T00:45:29.179Z,99713.31
2023-01-09T00:48:04.898Z,99715.00
2023-01-09T00:50:34.037Z,99709.00
2023-01-09T00:53:09.242Z,99707.28
2023-01-09T00:55:37.849Z,99695.13
2023-01-09T00:58:05.257Z,99676.97
2023-01-09T01:00:32.186Z,99686.53
2023-01-09T01:02:59.193Z,99686.50
2023-01-09T01:05:44.507Z,99691.72
2023-01-09T01:08:18.618Z,99684.78
2023-01-09T01:10:47.869Z,99688.25
2023-01-09T01:13:15.384Z,99689.13
2023-01-09T01:15:44.076Z,99687.41
2023-01-09T01:18:12.777Z,99686.53
2023-01-09T01:20:44.432Z,99683.06
2023-01-09T01:23:11.552Z,99683.06
2023-01-09T01:25:40.604Z,99690.88
2023-01-09T01:28:08.450Z,99684.84
2023-01-09T01:30:40.643Z,99696.09
2023-01-09T01:33:08.171Z,99701.28
2023-01-09T01:35:35.177Z,99690.88
2023-01-09T01:38:02.129Z,99680.50
2023-01-09T01:40:29.846Z,99670.97
2023-01-09T01:42:58.612Z,99664.94
2023-01-09T01:45:29.055Z,99654.53
2023-01-09T01:48:24.666Z,99654.59
2023-01-09T01:51:04.525Z,99650.34
2023-01-09T01:53:54.813Z,99661.59
2023-01-09T01:56:37.021Z,99658.16
2023-01-09T01:59:06.280Z,99653.84
2023-01-09T02:01:33.820Z,99653.91
2023-01-09T02:04:02.688Z,99649.59
2023-01-09T02:06:31.713Z,99639.22
2023-01-09T02:08:58.707Z,99640.09
2023-01-09T02:11:25.634Z,99638.41
2023-01-09T02:13:52.900Z,99637.56
2023-01-09T02:16:47.820Z,99622.88
2023-01-09T02:19:47.166Z,99617.75
2023-01-09T02:22:35.646Z,99634.22
2023-01-09T02:25:38.109Z,99638.56
2023-01-09T02:28:53.217Z,99645.50
2023-01-09T02:31:33.217Z,99642.94
2023-01-09T02:34:21.003Z,99645.56
2023-01-09T02:37:04.604Z,99638.66
2023-01-09T02:39:43.469Z,99632.59
2023-01-09T02:42:25.281Z,99628.28
2023-01-09T02:44:52.150Z,99620.53
2023-01-09T02:47:18.943Z,99618.78
2023-01-09T02:49:54.081Z,99631.78
2023-01-09T02:52:55.773Z,99634.41
2023-01-09T02:56:04.069Z,99630.94
2023-01-09T02:59:25.434Z,99633.56
2023-01-09T03:02:13.864Z,99631.81
2023-01-09T03:05:06.949Z,99628.38
2023-01-09T03:07:41.929Z,99629.25
2023-01-09T03:10:49.889Z,99637.06
2023-01-09T03:13:20.321Z,99635.34
2023-01-09T03:15:51.217Z,99637.91
2023-01-09T03:18:22.873Z,99637.06
2023-01-09T03:20:51.470Z,99630.16
2023-01-09T03:23:18.372Z,99627.53
2023-01-09T03:25:45.351Z,99627.53
2023-01-09T03:28:28.746Z,99623.22
2023-01-09T03:30:55.850Z,99623.22
2023-01-09T03:33:22.756Z,99617.16
2023-01-09T03:35:49.688Z,99615.44
2023-01-09T03:38:16.575Z,99606.81
2023-01-09T03:40:43.791Z,99603.34
2023-01-09T03:43:10.874Z,99604.25
2023-01-09T03:45:37.883Z,99605.94
2023-01-09T03:48:05.032Z,99604.22
2023-01-09T03:50:32.209Z,99608.53
2023-01-09T03:52:59.138Z,99608.56
2023-01-09T03:55:26.126Z,99603.38
2023-01-09T03:57:54.094Z,99608.56
2023-01-09T04:00:21.706Z,99604.25
2023-01-09T04:02:48.634Z,99609.44
2023-01-09T04:05:15.537Z,99621.50
2023-01-09T04:07:42.427Z,99605.13
2023-01-09T04:10:11.250Z,99600.81
2023-01-09T04:12:38.175Z,99591.31
2023-01-09T04:15:05.818Z,99591.28
2023-01-09T04:17:32.711Z,99592.16
2023-01-09T04:19:59.615Z,99598.19
2023-01-09T04:22:26.647Z,99595.63
2023-01-09T04:24:53.515Z,99599.06
2023-01-09T04:27:20.380Z,99603.41
2023-01-09T04:29:47.321Z,99611.16
2023-01-09T04:32:14.212Z,99604.25
2023-01-09T04:34:41.145Z,99608.56
2023-01-09T04:37:08.008Z,99605.13
2023-01-09T04:39:34.884Z,99605.13
2023-01-09T04:42:01.773Z,99599.94
2023-01-09T04:44:28.763Z,99600.78
2023-01-09T04:46:58.847Z,99599.91
2023-01-09T04:49:26.104Z,99599.94
2023-01-09T04:51:54.791Z,99587.84
2023-01-09T04:54:21.783Z,99588.72
2023-01-09T04:56:48.968Z,99583.53
2023-01-09T04:59:15.875Z,99581.78
2023-01-09T05:01:42.898Z,99580.09
2023-01-09T05:04:11.133Z,99563.69
2023-01-09T05:06:38.067Z,99568.84
2023-01-09T05:09:04.954Z,99569.69
2023-01-09T05:11:31.855Z,99564.53
2023-01-09T05:13:58.778Z,99568.84
2023-01-09T05:16:25.713Z,99557.63
2023-01-09T05:18:56.560Z,99557.63
2023-01-09T05:21:27.408Z,99550.72
2023-01-09T05:23:54.319Z,99547.25
2023-01-09T05:26:24.110Z,99543.81
2023-01-09T05:28:52.359Z,99542.94
2023-01-09T05:31:20.574Z,99549.84
2023-01-09T05:33:47.532Z,99539.50
2023-01-09T05:36:14.606Z,99529.97
2023-01-09T05:38:41.565Z,99516.22
2023-01-09T05:41:08.516Z,99512.72
2023-01-09T05:43:35.428Z,99504.09
2023-01-09T05:46:02.362Z,99496.31
2023-01-09T05:48:29.572Z,99492.00
2023-01-09T05:50:56.486Z,99486.81
2023-01-09T05:53:23.362Z,99483.34
2023-01-09T05:55:50.265Z,99478.19
2023-01-09T05:58:17.138Z,99477.31
2023-01-09T06:00:44.043Z,99477.28
2023-01-09T06:03:10.998Z,99483.31
2023-01-09T06:05:37.935Z,99478.13
2023-01-09T06:08:04.884Z,99467.75
2023-01-09T06:10:31.775Z,99474.66
2023-01-09T06:12:58.654Z,99468.59
2023-01-09T06:15:25.548Z,99472.88
2023-01-09T06:17:52.421Z,99472.88
2023-01-09T06:20:19.546Z,99482.38
2023-01-09T06:22:46.419Z,99484.13
2023-01-09T06:25:13.845Z,99478.88
2023-01-09T06:27:40.712Z,99474.56
2023-01-09T06:30:08.725Z,99462.50
2023-01-09T06:32:35.628Z,99479.69
2023-01-09T06:35:02.949Z,99484.88
2023-01-09T06:37:29.871Z,99482.28
2023-01-09T06:39:56.811Z,99483.19
2023-01-09T06:42:23.682Z,99487.47
2023-01-09T06:44:50.582Z,99490.06
2023-01-09T06:47:17.719Z,99484.03
2023-01-09T06:49:44.676Z,99489.22
2023-01-09T06:52:11.567Z,99496.13
2023-01-09T06:54:38.457Z,99480.59
2023-01-09T06:57:05.372Z,99495.22
2023-01-09T06:59:32.247Z,99495.19
2023-01-09T07:01:59.226Z,99501.22
2023-01-09T07:04:26.219Z,99504.69
2023-01-09T07:06:53.110Z,99499.47
2023-01-09T07:09:19.975Z,99498.63
2023-01-09T07:11:46.885Z,99487.41
2023-01-09T07:14:13.799Z,99496.00
2023-01-09T07:16:40.696Z,99497.75
2023-01-09T07:19:07.621Z,99496.03
2023-01-09T07:21:34.501Z,99501.19
2023-01-09T07:24:01.380Z,99496.00
2023-01-09T07:26:28.253Z,99497.75
2023-01-09T07:28:55.152Z,99496.84
2023-01-09T07:31:22.361Z,99489.97
2023-01-09T07:33:49.236Z,99495.13
2023-01-09T07:36:16.215Z,99489.94
2023-01-09T07:38:43.084Z,99483.88
2023-01-09T07:41:10.107Z,99489.09
2023-01-09T07:43:38.473Z,99487.31
2023-01-09T07:46:06.201Z,99476.09
2023-01-09T07:48:33.837Z,99484.69
2023-01-09T07:51:00.796Z,99482.97
2023-01-09T07:53:27.695Z,99488.97
2023-01-09T07:55:54.593Z,99484.66
2023-01-09T07:58:21.467Z,99484.63
2023-01-09T08:00:48.344Z,99494.13
2023-01-09T08:03:15.191Z,99487.22
2023-01-09T08:05:42.052Z,99494.97
2023-01-09T08:08:08.920Z,99494.09
2023-01-09T08:10:35.816Z,99488.06
2023-01-09T08:13:03.189Z,99498.44
2023-01-09T08:15:30.807Z,99485.47
2023-01-09T08:17:57.651Z,99488.06
2023-01-09T08:20:24.543Z,99488.06
2023-01-09T08:22:53.538Z,99479.44
2023-01-09T08:25:20.971Z,99471.66
2023-01-09T08:27:48.004Z,99450.91
2023-01-09T08:30:16.326Z,99461.22
2023-01-09T08:32:43.245Z,99463.81
2023-01-09T08:35:10.355Z,99459.50
2023-01-09T08:37:37.215Z,99470.75
2023-01-09T08:40:04.512Z,99488.88
2023-01-09T08:42:49.995Z,99478.50
2023-01-09T08:45:35.473Z,99490.56
2023-01-09T08:48:02.391Z,99491.44
2023-01-09T08:50:29.253Z,99486.25
2023-01-09T08:52:56.144Z,99497.47
2023-01-09T08:55:23.031Z,99495.72
2023-01-09T08:57:54.208Z,99501.78
2023-01-09T09:00:23.945Z,99506.97
2023-01-09T09:02:56.556Z,99504.34
2023-01-09T09:05:25.259Z,99494.81
2023-01-09T09:07:54.817Z,99494.84
2023-01-09T09:10:23.866Z,99509.50
2023-01-09T09:12:52.673Z,99512.94
2023-01-09T09:15:26.536Z,99506.94
2023-01-09T09:18:03.015Z,99510.38
2023-01-09T09:20:34.998Z,99505.13
2023-01-09T09:23:01.924Z,99514.59
2023-01-09T09:25:29.552Z,99516.31
2023-01-09T09:27:56.469Z,99514.53
2023-01-09T09:30:24.140Z,99509.34
2023-01-09T09:32:51.140Z,99515.34
2023-01-09T09:35:18.691Z,99509.28
2023-01-09T09:37:58.092Z,99520.53
2023-01-09T09:41:01.150Z,99520.53
2023-01-09T09:44:24.032Z,99513.56
2023-01-09T09:47:06.658Z,99506.59
2023-01-09T09:50:06.430Z,99509.16
2023-01-09T09:53:15.406Z,99513.47
2023-01-09T09:55:43.099Z,99514.28
2023-01-09T09:58:17.763Z,99514.25
2023-01-09T10:00:44.690Z,99509.00
2023-01-09T10:03:34.296Z,99509.88
2023-01-09T10:06:07.671Z,99501.13
2023-01-09T10:09:37.136Z,99509.81
2023-01-09T10:12:39.634Z,99511.53
2023-01-09T10:15:19.723Z,99512.41
2023-01-09T10:18:04.720Z,99514.97
2023-01-09T10:20:54.765Z,99518.47
2023-01-09T10:23:59.825Z,99508.94
2023-01-09T10:26:38.233Z,99515.00
2023-01-09T10:29:40.232Z,99514.97
2023-01-09T10:32:33.508Z,99510.63
2023-01-09T10:35:22.378Z,99513.19
2023-01-09T10:37:53.381Z,99520.94
2023-01-09T10:40:27.271Z,99514.88
2023-01-09T10:43:09.308Z,99522.59
2023-01-09T10:45:54.389Z,99524.31
2023-01-09T10:48:38.776Z,99526.00
2023-01-09T10:51:25.737Z,99529.47
2023-01-09T10:53:56.348Z,99535.47
2023-01-09T10:56:27.499Z,99541.56
2023-01-09T10:58:55.948Z,99539.81
2023-01-09T11:01:31.978Z,99544.16
2023-01-09T11:03:59.155Z,99540.66
2023-01-09T11:06:37.288Z,99541.53
2023-01-09T11:09:06.050Z,99544.13
2023-01-09T11:11:40.808Z,99551.06
2023-01-09T11:14:31.340Z,99561.47
2023-01-09T11:17:02.135Z,99544.13
2023-01-09T11:19:33.041Z,99546.75
2023-01-09T11:22:18.578Z,99550.22
2023-01-09T11:24:46.244Z,99542.38
2023-01-09T11:27:13.064Z,99552.72
2023-01-09T11:29:41.565Z,99561.31
2023-01-09T11:32:23.595Z,99551.75
2023-01-09T11:34:50.888Z,99553.44
2023-01-09T11:37:26.389Z,99560.31
2023-01-09T11:39:53.487Z,99564.59
2023-01-09T11:42:45.875Z,99555.03
2023-01-09T11:45:27.035Z,99569.75
2023-01-09T11:47:54.095Z,99557.59
2023-01-09T11:50:24.921Z,99556.69
2023-01-09T11:53:19.739Z,99556.66
2023-01-09T11:55:55.598Z,99575.72
2023-01-09T11:58:22.507Z,99571.38
2023-01-09T12:01:22.470Z,99580.91
2023-01-09T12:04:31.271Z,99586.16
2023-01-09T12:07:38.385Z,99588.78
2023-01-09T12:10:30.991Z,99593.13
2023-01-09T12:13:12.129Z,99592.22
2023-01-09T12:16:25.577Z,99587.88
2023-01-09T12:19:37.865Z,99592.22
2023-01-09T12:22:37.418Z,99594.78
2023-01-09T12:25:20.399Z,99599.13
2023-01-09T12:28:46.056Z,99602.63
2023-01-09T12:31:52.088Z,99598.22
2023-01-09T12:34:44.468Z,99607.72
2023-01-09T12:37:51.011Z,99607.72
2023-01-09T12:40:42.959Z,99617.25
2023-01-09T12:44:01.668Z,99603.38
2023-01-09T12:46:46.540Z,99605.94
2023-01-09T12:49:31.137Z,99613.69
2023-01-09T12:52:17.447Z,99628.44
2023-01-09T12:55:05.018Z,99631.03
2023-01-09T12:57:37.586Z,99627.50
2023-01-09T13:00:15.227Z,99631.81
2023-01-09T13:03:11.404Z,99643.03
2023-01-09T13:05:47.471Z,99638.72
2023-01-09T13:08:24.966Z,99642.19
2023-01-09T13:11:19.318Z,99649.97
2023-01-09T13:13:59.959Z,99637.81
2023-01-09T13:16:41.544Z,99637.81
2023-01-09T13:19:24.983Z,99641.28
2023-01-09T13:21:52.602Z,99650.78
2023-01-09T13:24:54.914Z,99646.44
2023-01-09T13:27:24.838Z,99656.84
2023-01-09T13:30:08.366Z,99661.16
2023-01-09T13:33:12.207Z,99657.75
2023-01-09T13:35:57.893Z,99663.84
2023-01-09T13:38:27.830Z,99668.97
2023-01-09T13:41:36.222Z,99668.06
2023-01-09T13:44:21.730Z,99671.56
2023-01-09T13:46:52.354Z,99666.38
2023-01-09T13:49:40.254Z,99670.75
2023-01-09T13:52:38.608Z,99680.31
2023-01-09T13:55:26.288Z,99682.06
2023-01-09T13:58:13.711Z,99686.44
2023-01-09T14:00:44.036Z,99687.31
2023-01-09T14:03:32.686Z,99689.13
2023-01-09T14:05:59.417Z,99700.38
2023-01-09T14:08:29.149Z,99699.47
2023-01-09T14:11:00.934Z,99705.53
2023-01-09T14:13:43.319Z,99713.38
2023-01-09T14:16:36.916Z,99711.66
2023-01-09T14:19:33.715Z,99713.41
2023-01-09T14:22:01.712Z,99710.78
2023-01-09T14:24:52.681Z,99722.09
2023-01-09T14:28:06.728Z,99728.19
2023-01-09T14:30:37.487Z,99732.56
2023-01-09T14:33:29.831Z,99728.25
2023-01-09T14:36:15.203Z,99730.88
2023-01-09T14:38:51.949Z,99739.53
2023-01-09T14:41:57.895Z,99737.88
2023-01-09T14:44:32.785Z,99742.22
2023-01-09T14:47:24.356Z,99743.19
2023-01-09T14:49:59.128Z,99738.94
2023-01-09T14:52:34.187Z,99756.28
2023-01-09T14:55:04.760Z,99757.22
2023-01-09T14:57:34.569Z,99758.13
2023-01-09T15:00:12.940Z,99767.69
2023-01-09T15:02:41.311Z,99779.00
2023-01-09T15:05:16.739Z,99773.84
2023-01-09T15:07:51.680Z,99778.22
2023-01-09T15:10:26.271Z,99786.03
2023-01-09T15:12:56.091Z,99784.34
2023-01-09T15:15:24.180Z,99791.31
2023-01-09T15:18:08.387Z,99804.31
2023-01-09T15:20:35.532Z,99800.03
2023-01-09T15:23:05.384Z,99809.59
2023-01-09T15:25:39.375Z,99822.59
2023-01-09T15:28:32.873Z,99818.28
2023-01-09T15:31:09.821Z,99809.69
2023-01-09T15:33:39.790Z,99822.66
2023-01-09T15:36:17.776Z,99827.84
2023-01-09T15:38:45.357Z,99827.00
2023-01-09T15:41:37.790Z,99826.13
2023-01-09T15:44:08.098Z,99834.78
2023-01-09T15:46:34.982Z,99840.81
2023-01-09T15:49:01.957Z,99838.25
2023-01-09T15:51:29.150Z,99855.53
2023-01-09T15:53:58.453Z,99858.13
2023-01-09T15:56:30.579Z,99849.50
2023-01-09T15:58:59.455Z,99853.81
2023-01-09T16:01:40.640Z,99860.75
2023-01-09T16:04:11.887Z,99872.84
2023-01-09T16:06:47.962Z,99852.06
2023-01-09T16:09:23.532Z,99864.19
2023-01-09T16:11:54.042Z,99868.50
2023-01-09T16:14:39.847Z,99871.06
2023-01-09T16:17:15.122Z,99880.63
2023-01-09T16:19:50.375Z,99867.59
2023-01-09T16:22:34.089Z,99868.50
2023-01-09T16:25:22.009Z,99875.44
2023-01-09T16:28:24.373Z,99879.78
2023-01-09T16:31:08.158Z,99891.03
2023-01-09T16:33:35.355Z,99886.72
2023-01-09T16:36:04.941Z,99889.34
2023-01-09T16:38:31.818Z,99904.06
2023-01-09T16:41:18.556Z,99907.53
2023-01-09T16:43:46.184Z,99901.50
2023-01-09T16:46:15.660Z,99909.28
2023-01-09T16:48:43.247Z,99924.84
2023-01-09T16:51:20.809Z,99916.22
2023-01-09T16:53:48.751Z,99924.00
2023-01-09T16:56:22.132Z,99919.66
2023-01-09T16:58:49.381Z,99930.91
2023-01-09T17:01:16.723Z,99930.91
2023-01-09T17:03:44.355Z,99924.88
2023-01-09T17:06:30.905Z,99929.19
2023-01-09T17:08:58.220Z,99928.34
2023-01-09T17:11:31.527Z,99924.00
2023-01-09T17:14:02.373Z,99933.50
2023-01-09T17:16:30.028Z,99931.78
2023-01-09T17:18:57.027Z,99933.47
2023-01-09T17:21:28.839Z,99921.34
2023-01-09T17:24:14.589Z,99938.66
2023-01-09T17:27:04.303Z,99940.38
2023-01-09T17:29:31.508Z,99943.84
2023-01-09T17:31:58.702Z,99940.34
2023-01-09T17:34:25.628Z,99938.63
2023-01-09T17:36:55.468Z,99947.25
2023-01-09T17:39:23.690Z,99950.72
2023-01-09T17:41:50.630Z,99952.44
2023-01-09T17:44:17.513Z,99955.03
2023-01-09T17:46:45.166Z,99952.44
2023-01-09T17:49:21.446Z,99952.44
2023-01-09T17:51:48.728Z,99952.44
2023-01-09T17:54:15.764Z,99948.09
2023-01-09T17:56:50.785Z,99936.81
2023-01-09T17:59:18.204Z,99961.09
2023-01-09T18:01:45.600Z,99967.13
2023-01-09T18:04:12.699Z,99961.09
2023-01-09T18:06:39.757Z,99960.22
2023-01-09T18:09:07.906Z,99955.03
2023-01-09T18:11:35.121Z,99955.81
2023-01-09T18:14:02.144Z,99962.75
2023-01-09T18:16:29.149Z,99969.66
2023-01-09T18:18:58.679Z,99971.34
2023-01-09T18:21:27.611Z,99973.94
2023-01-09T18:23:55.137Z,99976.53
2023-01-09T18:26:22.901Z,99974.81
2023-01-09T18:28:57.729Z,99970.50
2023-01-09T18:31:26.758Z,99975.66
2023-01-09T18:33:56.529Z,99975.66
2023-01-09T18:36:30.150Z,99973.94
2023-01-09T18:39:00.046Z,99980.81
2023-01-09T18:41:27.418Z,99983.41
2023-01-09T18:43:57.641Z,99968.69
2023-01-09T18:46:25.254Z,99977.34
2023-01-09T18:48:57.401Z,99993.81
2023-01-09T18:51:26.078Z,99997.25
2023-01-09T18:53:53.034Z,99994.66
2023-01-09T18:56:21.076Z,99998.13
2023-01-09T18:58:48.696Z,99999.00
2023-01-09T19:01:16.570Z,100008.50
2023-01-09T19:03:43.713Z,100004.22
2023-01-09T19:06:10.943Z,100007.66
2023-01-09T19:08:38.084Z,100004.22
2023-01-09T19:11:05.854Z,99996.44
2023-01-09T19:13:36.208Z,100004.28
2023-01-09T19:16:05.152Z,100008.63
2023-01-09T19:18:39.472Z,100010.31
2023-01-09T19:21:22.016Z,100014.66
2023-01-09T19:23:49.457Z,100013.81
2023-01-09T19:26:23.785Z,100019.88
2023-01-09T19:28:54.927Z,100016.44
2023-01-09T19:31:24.481Z,100023.38
2023-01-09T19:33:52.611Z,100023.34
2023-01-09T19:36:20.018Z,100026.00
2023-01-09T19:38:47.197Z,100034.63
2023-01-09T19:41:19.175Z,100026.88
2023-01-09T19:43:46.933Z,100032.06
2023-01-09T19:46:20.449Z,100033.78
2023-01-09T19:48:48.113Z,100042.44
2023-01-09T19:51:17.745Z,100036.41
2023-01-09T19:53:44.877Z,100031.19
2023-01-09T19:56:21.688Z,100039.84
2023-01-09T19:59:00.357Z,100042.47
2023-01-09T20:01:34.239Z,100039.03
2023-01-09T20:04:07.631Z,100040.75
2023-01-09T20:06:35.767Z,100052.88
2023-01-09T20:09:04.520Z,100062.38
2023-01-09T20:11:32.669Z,100062.38
2023-01-09T20:14:00.478Z,100065.84
2023-01-09T20:16:30.480Z,100058.91
2023-01-09T20:19:01.021Z,100070.16
2023-01-09T20:21:29.196Z,100049.41
2023-01-09T20:23:59.437Z,100072.75
2023-01-09T20:26:28.075Z,100077.06
2023-01-09T20:28:55.848Z,100075.38
2023-01-09T20:31:25.059Z,100080.56
2023-01-09T20:33:52.042Z,100080.56
2023-01-09T20:36:21.606Z,100068.44
2023-01-09T20:38:48.702Z,100082.31
2023-01-09T20:41:22.622Z,100091.81
2023-01-09T20:43:54.562Z,100098.78
2023-01-09T20:46:24.739Z,100091.81
2023-01-09T20:48:51.809Z,100088.38
2023-01-09T20:51:18.817Z,100103.97
2023-01-09T20:53:48.387Z,100100.50
2023-01-09T20:56:15.254Z,100114.38
2023-01-09T20:58:42.397Z,100118.69
2023-01-09T21:01:14.208Z,100110.91
2023-01-09T21:03:42.170Z,100120.41
2023-01-09T21:06:15.272Z,100118.69
2023-01-09T21:08:43.002Z,100129.94
2023-01-09T21:11:10.741Z,100129.97
2023-01-09T21:13:38.671Z,100130.84
2023-01-09T21:16:12.998Z,100123.91
2023-01-09T21:18:40.562Z,100114.38
2023-01-09T21:21:13.262Z,100134.28
2023-01-09T21:23:49.540Z,100133.41
2023-01-09T21:26:17.041Z,100133.44
2023-01-09T21:28:48.982Z,100140.34
2023-01-09T21:31:22.155Z,100141.22
2023-01-09T21:33:49.445Z,100151.59
2023-01-09T21:36:17.163Z,100148.16
2023-01-09T21:38:45.817Z,100151.63
2023-01-09T21:41:33.055Z,100162.00
2023-01-09T21:44:18.526Z,100177.56
2023-01-09T21:46:51.449Z,100175.84
2023-01-09T21:49:20.052Z,100171.50
2023-01-09T21:51:46.972Z,100181.91
2023-01-09T21:54:13.861Z,100173.25
2023-01-09T21:56:40.788Z,100167.19
2023-01-09T21:59:07.848Z,100171.50
2023-01-09T22:01:34.825Z,100175.00
2023-01-09T22:04:01.934Z,100185.38
2023-01-09T22:06:28.840Z,100196.66
2023-01-09T22:08:56.214Z,100197.50
2023-01-09T22:11:23.886Z,100200.97
2023-01-09T22:13:51.593Z,100203.56
2023-01-09T22:16:19.378Z,100212.22
2023-01-09T22:18:46.531Z,100207.88
2023-01-09T22:21:13.639Z,100220.88
2023-01-09T22:23:40.525Z,100213.09
2023-01-09T22:26:13.957Z,100219.16
2023-01-09T22:28:41.560Z,100212.22
2023-01-09T22:31:10.658Z,100226.94
2023-01-09T22:33:37.986Z,100227.78
2023-01-09T22:36:08.027Z,100228.66
2023-01-09T22:38:35.282Z,100229.56
2023-01-09T22:41:02.663Z,100234.75
2023-01-09T22:43:30.760Z,100244.25
2023-01-09T22:46:06.465Z,100249.44
2023-01-09T22:48:34.575Z,100254.66
2023-01-09T22:51:06.609Z,100260.72
2023-01-09T22:53:33.926Z,100267.66
2023-01-09T22:56:08.182Z,100266.81
2023-01-09T22:58:35.095Z,100270.28
2023-01-09T23:01:02.985Z,100272.88
2023-01-09T23:03:29.874Z,100279.81
2023-01-09T23:06:05.749Z,100281.53
2023-01-09T23:08:33.913Z,100282.41
2023-01-09T23:11:08.912Z,100291.06
2023-01-09T23:13:35.916Z,100291.06
2023-01-09T23:16:02.781Z,100295.41
2023-01-09T23:18:29.794Z,100298.00
2023-01-09T23:21:00.497Z,100303.22
2023-01-09T23:23:29.549Z,100309.28
2023-01-09T23:25:59.653Z,100313.59
2023-01-09T23:28:28.035Z,100316.22
2023-01-09T23:30:54.954Z,100323.13
2023-01-09T23:33:21.866Z,100324.03
2023-01-09T23:35:49.036Z,100331.84
2023-01-09T23:38:16.362Z,100333.56
2023-01-09T23:40:43.291Z,100324.91
2023-01-09T23:43:11.957Z,100333.56
2023-01-09T23:45:44.820Z,100330.97
2023-01-09T23:48:16.599Z,100339.63
2023-01-09T23:50:53.777Z,100344.84
2023-01-09T23:53:22.394Z,100350.03
2023-01-09T23:55:52.562Z,100350.91
2023-01-09T23:58:19.447Z,100355.25
